createdAt,value
2019-01-17T00:00:12.488Z,6.67
2019-01-17T00:01:12.516Z,6.64
2019-01-17T00:02:12.542Z,6.69
2019-01-17T00:03:12.539Z,6.74
2019-01-17T00:04:12.548Z,6.56
2019-01-17T00:05:12.567Z,6.56
2019-01-17T00:06:12.587Z,6.60
2019-01-17T00:07:12.595Z,6.46
2019-01-17T00:08:12.621Z,6.60
2019-01-17T00:09:12.643Z,6.64
2019-01-17T00:10:12.644Z,6.72
2019-01-17T00:11:12.680Z,6.72
2019-01-17T00:12:12.688Z,6.79
2019-01-17T00:13:12.693Z,6.77
2019-01-17T00:14:12.703Z,6.84
2019-01-17T00:15:12.726Z,6.84
2019-01-17T00:16:12.737Z,6.81
2019-01-17T00:17:12.758Z,6.95
2019-01-17T00:18:12.784Z,6.89
2019-01-17T00:19:12.795Z,6.84
2019-01-17T00:20:12.802Z,6.75
2019-01-17T00:21:12.814Z,6.70
2019-01-17T00:22:12.830Z,6.74
2019-01-17T00:23:12.855Z,6.75
2019-01-17T00:24:12.893Z,6.64
2019-01-17T00:25:12.898Z,6.63
2019-01-17T00:26:12.905Z,6.64
2019-01-17T00:27:12.911Z,6.63
2019-01-17T00:28:12.936Z,6.67
2019-01-17T00:29:12.951Z,6.70
2019-01-17T00:30:12.958Z,6.78
2019-01-17T00:31:12.981Z,6.81
2019-01-17T00:32:12.994Z,6.62
2019-01-17T00:33:13.015Z,6.59
2019-01-17T00:34:13.041Z,6.70
2019-01-17T00:35:13.045Z,6.60
2019-01-17T00:36:13.061Z,6.72
2019-01-17T00:37:13.081Z,6.69
2019-01-17T00:38:13.094Z,6.59
2019-01-17T00:39:13.103Z,6.74
2019-01-17T00:40:13.122Z,6.69
2019-01-17T00:41:13.138Z,6.72
2019-01-17T00:42:13.149Z,6.78
2019-01-17T00:43:13.162Z,6.75
2019-01-17T00:44:13.183Z,6.82
2019-01-17T00:45:13.194Z,6.66
2019-01-17T00:46:13.219Z,6.75
2019-01-17T00:47:13.234Z,6.77
2019-01-17T00:48:13.249Z,6.74
2019-01-17T00:49:13.263Z,6.87
2019-01-17T00:50:13.281Z,6.88
2019-01-17T00:51:13.298Z,6.82
2019-01-17T00:52:13.309Z,7.00
2019-01-17T00:53:13.325Z,6.84
2019-01-17T00:54:13.344Z,6.82
2019-01-17T00:55:13.354Z,6.70
2019-01-17T00:56:13.372Z,6.77
2019-01-17T00:57:13.402Z,6.84
2019-01-17T00:58:13.406Z,6.79
2019-01-17T00:59:13.431Z,6.84
2019-01-17T01:00:13.436Z,6.82
2019-01-17T01:01:13.451Z,6.60
2019-01-17T01:02:13.477Z,6.69
2019-01-17T01:03:13.481Z,6.85
2019-01-17T01:04:13.527Z,6.77
2019-01-17T01:05:13.530Z,6.81
2019-01-17T01:06:13.535Z,6.85
2019-01-17T01:07:13.543Z,6.97
2019-01-17T01:08:13.571Z,6.89
2019-01-17T01:09:13.596Z,6.79
2019-01-17T01:10:13.593Z,6.74
2019-01-17T01:11:13.608Z,6.92
2019-01-17T01:12:13.627Z,6.85
2019-01-17T01:13:13.643Z,7.02
2019-01-17T01:14:13.653Z,6.93
2019-01-17T01:15:13.697Z,6.93
2019-01-17T01:16:13.702Z,6.99
2019-01-17T01:17:13.710Z,6.92
2019-01-17T01:18:13.722Z,7.05
2019-01-17T01:19:13.743Z,7.11
2019-01-17T01:20:13.752Z,7.11
2019-01-17T01:21:13.768Z,7.11
2019-01-17T01:22:13.799Z,7.18
2019-01-17T01:23:13.808Z,7.18
2019-01-17T01:24:15.556Z,7.20
2019-01-17T01:25:13.841Z,7.17
2019-01-17T01:26:13.852Z,7.20
2019-01-17T01:27:13.868Z,7.14
2019-01-17T01:28:13.933Z,7.17
2019-01-17T01:29:13.897Z,7.17
2019-01-17T01:30:13.912Z,7.23
2019-01-17T01:31:13.947Z,7.17
2019-01-17T01:32:13.948Z,7.17
2019-01-17T01:33:13.956Z,7.20
2019-01-17T01:34:13.980Z,7.13
2019-01-17T01:35:13.997Z,7.15
2019-01-17T01:36:14.013Z,7.05
2019-01-17T01:37:14.028Z,7.00
2019-01-17T01:38:14.069Z,7.18
2019-01-17T01:39:14.057Z,7.15
2019-01-17T01:40:14.085Z,7.14
2019-01-17T01:41:14.092Z,7.20
2019-01-17T01:42:14.122Z,7.18
2019-01-17T01:43:14.134Z,7.18
2019-01-17T01:44:14.165Z,7.18
2019-01-17T01:45:14.172Z,7.17
2019-01-17T01:46:14.178Z,7.17
2019-01-17T01:47:14.198Z,7.13
2019-01-17T01:48:14.219Z,7.13
2019-01-17T01:49:14.219Z,6.93
2019-01-17T01:50:14.257Z,6.97
2019-01-17T01:51:14.253Z,6.93
2019-01-17T01:52:14.276Z,7.03
2019-01-17T01:53:14.291Z,6.97
2019-01-17T01:54:14.309Z,6.93
2019-01-17T01:55:14.326Z,7.13
2019-01-17T01:56:14.333Z,7.11
2019-01-17T01:57:14.354Z,7.00
2019-01-17T01:58:14.386Z,7.05
2019-01-17T01:59:14.391Z,6.95
2019-01-17T02:00:14.411Z,6.88
2019-01-17T02:01:14.418Z,6.96
2019-01-17T02:02:14.433Z,6.93
2019-01-17T02:03:14.444Z,6.93
2019-01-17T02:04:14.465Z,6.93
2019-01-17T02:05:14.489Z,6.92
2019-01-17T02:06:14.498Z,6.99
2019-01-17T02:07:14.516Z,7.10
2019-01-17T02:08:14.528Z,7.03
2019-01-17T02:09:14.570Z,7.02
2019-01-17T02:10:14.570Z,6.93
2019-01-17T02:11:14.580Z,6.97
2019-01-17T02:12:14.593Z,6.96
2019-01-17T02:13:14.609Z,7.07
2019-01-17T02:14:14.622Z,7.11
2019-01-17T02:15:14.639Z,6.96
2019-01-17T02:16:14.701Z,6.87
2019-01-17T02:17:14.675Z,6.99
2019-01-17T02:18:14.691Z,6.97
2019-01-17T02:19:14.704Z,6.93
2019-01-17T02:20:14.723Z,7.00
2019-01-17T02:21:14.781Z,7.07
2019-01-17T02:22:14.754Z,7.10
2019-01-17T02:23:14.762Z,6.96
2019-01-17T02:24:14.783Z,6.95
2019-01-17T02:25:14.814Z,7.05
2019-01-17T02:26:14.816Z,7.14
2019-01-17T02:27:14.847Z,6.99
2019-01-17T02:28:14.871Z,6.99
2019-01-17T02:29:14.873Z,6.79
2019-01-17T02:30:14.964Z,6.77
2019-01-17T02:31:14.909Z,6.87
2019-01-17T02:32:14.915Z,6.97
2019-01-17T02:33:14.944Z,6.96
2019-01-17T02:34:14.964Z,6.89
2019-01-17T02:35:14.973Z,6.92
2019-01-17T02:36:14.976Z,6.82
2019-01-17T02:37:15.002Z,7.00
2019-01-17T02:38:15.017Z,6.92
2019-01-17T02:39:15.027Z,6.99
2019-01-17T02:40:15.038Z,6.93
2019-01-17T02:41:15.073Z,7.06
2019-01-17T02:42:15.074Z,7.11
2019-01-17T02:43:15.086Z,6.96
2019-01-17T02:44:15.122Z,7.05
2019-01-17T02:45:15.133Z,6.93
2019-01-17T02:46:15.133Z,6.97
2019-01-17T02:47:15.148Z,6.92
2019-01-17T02:48:15.172Z,6.95
2019-01-17T02:49:15.194Z,6.93
2019-01-17T02:50:15.200Z,7.03
2019-01-17T02:51:15.227Z,7.06
2019-01-17T02:52:15.232Z,7.14
2019-01-17T02:53:15.251Z,7.20
2019-01-17T02:54:15.264Z,7.10
2019-01-17T02:55:15.287Z,7.18
2019-01-17T02:56:15.292Z,7.14
2019-01-17T02:57:15.309Z,7.17
2019-01-17T02:58:15.329Z,7.03
2019-01-17T02:59:15.352Z,7.03
2019-01-17T03:00:15.373Z,6.87
2019-01-17T03:01:15.378Z,6.79
2019-01-17T03:02:15.444Z,6.79
2019-01-17T03:03:15.411Z,6.79
2019-01-17T03:04:15.428Z,6.87
2019-01-17T03:05:15.453Z,6.92
2019-01-17T03:06:15.461Z,6.85
2019-01-17T03:07:15.487Z,6.81
2019-01-17T03:08:15.511Z,6.78
2019-01-17T03:09:15.503Z,6.79
2019-01-17T03:10:15.573Z,6.79
2019-01-17T03:11:15.536Z,6.89
2019-01-17T03:12:15.554Z,6.78
2019-01-17T03:13:15.579Z,6.78
2019-01-17T03:14:15.589Z,6.79
2019-01-17T03:15:15.601Z,6.81
2019-01-17T03:16:15.632Z,6.74
2019-01-17T03:17:15.640Z,6.72
2019-01-17T03:18:15.689Z,6.72
2019-01-17T03:19:15.672Z,6.85
2019-01-17T03:20:15.679Z,6.79
2019-01-17T03:21:15.696Z,6.70
2019-01-17T03:22:15.712Z,6.67
2019-01-17T03:23:15.742Z,6.64
2019-01-17T03:24:15.753Z,6.57
2019-01-17T03:25:15.768Z,6.46
2019-01-17T03:26:15.781Z,6.60
2019-01-17T03:27:15.799Z,6.57
2019-01-17T03:28:15.806Z,6.59
2019-01-17T03:29:15.821Z,6.62
2019-01-17T03:30:15.846Z,6.59
2019-01-17T03:31:15.869Z,6.62
2019-01-17T03:32:15.876Z,6.59
2019-01-17T03:33:15.895Z,6.60
2019-01-17T03:34:15.899Z,6.63
2019-01-17T03:35:15.918Z,6.67
2019-01-17T03:36:15.932Z,6.70
2019-01-17T03:37:15.962Z,6.64
2019-01-17T03:38:15.966Z,6.60
2019-01-17T03:39:15.988Z,6.45
2019-01-17T03:40:16.015Z,6.48
2019-01-17T03:41:16.014Z,6.52
2019-01-17T03:42:16.031Z,6.45
2019-01-17T03:43:16.042Z,6.46
2019-01-17T03:44:16.065Z,6.51
2019-01-17T03:45:16.072Z,6.42
2019-01-17T03:46:16.089Z,6.38
2019-01-17T03:47:16.111Z,6.42
2019-01-17T03:48:16.130Z,6.45
2019-01-17T03:49:16.136Z,6.41
2019-01-17T03:50:16.165Z,6.46
2019-01-17T03:51:16.213Z,6.38
2019-01-17T03:52:16.202Z,6.39
2019-01-17T03:53:16.235Z,6.42
2019-01-17T03:54:16.216Z,6.46
2019-01-17T03:55:16.254Z,6.42
2019-01-17T03:56:21.646Z,6.51
2019-01-17T03:57:16.257Z,6.44
2019-01-17T03:58:16.291Z,6.49
2019-01-17T03:59:16.296Z,6.38
2019-01-17T04:00:16.312Z,6.42
2019-01-17T04:01:16.324Z,6.38
2019-01-17T04:02:16.341Z,6.59
2019-01-17T04:03:16.355Z,6.49
2019-01-17T04:04:16.374Z,6.36
2019-01-17T04:05:16.385Z,6.42
2019-01-17T04:06:16.403Z,6.44
2019-01-17T04:07:16.417Z,6.41
2019-01-17T04:08:16.435Z,6.48
2019-01-17T04:09:16.453Z,6.44
2019-01-17T04:10:16.479Z,6.42
2019-01-17T04:11:16.479Z,6.51
2019-01-17T04:12:16.506Z,6.44
2019-01-17T04:13:16.518Z,6.41
2019-01-17T04:14:16.532Z,6.39
2019-01-17T04:15:16.547Z,6.45
2019-01-17T04:16:16.558Z,6.48
2019-01-17T04:17:16.569Z,6.51
2019-01-17T04:18:16.592Z,6.49
2019-01-17T04:19:16.617Z,6.51
2019-01-17T04:20:16.624Z,6.46
2019-01-17T04:21:16.631Z,6.42
2019-01-17T04:22:16.678Z,6.30
2019-01-17T04:23:16.675Z,6.44
2019-01-17T04:24:16.686Z,6.42
2019-01-17T04:25:16.698Z,6.44
2019-01-17T04:26:16.721Z,6.45
2019-01-17T04:27:16.727Z,6.48
2019-01-17T04:28:16.743Z,6.42
2019-01-17T04:29:16.755Z,6.33
2019-01-17T04:30:16.828Z,6.31
2019-01-17T04:31:16.814Z,6.42
2019-01-17T04:32:16.811Z,6.39
2019-01-17T04:33:16.827Z,6.35
2019-01-17T04:34:16.834Z,6.24
2019-01-17T04:35:16.850Z,6.35
2019-01-17T04:36:16.874Z,6.39
2019-01-17T04:37:16.887Z,6.38
2019-01-17T04:38:16.897Z,6.44
2019-01-17T04:39:16.957Z,6.46
2019-01-17T04:40:16.929Z,6.62
2019-01-17T04:41:16.941Z,6.56
2019-01-17T04:42:16.963Z,6.44
2019-01-17T04:43:16.993Z,6.38
2019-01-17T04:44:16.994Z,6.44
2019-01-17T04:45:17.010Z,6.38
2019-01-17T04:46:17.041Z,6.49
2019-01-17T04:47:17.042Z,6.59
2019-01-17T04:48:17.055Z,6.63
2019-01-17T04:49:17.068Z,6.60
2019-01-17T04:50:17.102Z,6.49
2019-01-17T04:51:17.112Z,6.56
2019-01-17T04:52:17.128Z,6.62
2019-01-17T04:53:17.132Z,6.54
2019-01-17T04:54:17.160Z,6.44
2019-01-17T04:55:17.167Z,6.39
2019-01-17T04:56:17.179Z,6.42
2019-01-17T04:57:17.189Z,6.52
2019-01-17T04:58:17.211Z,6.48
2019-01-17T04:59:17.230Z,6.46
2019-01-17T05:00:17.243Z,6.45
2019-01-17T05:01:17.272Z,6.36
2019-01-17T05:02:17.276Z,6.45
2019-01-17T05:03:17.286Z,6.27
2019-01-17T05:04:17.301Z,6.42
2019-01-17T05:05:17.322Z,6.24
2019-01-17T05:06:17.350Z,6.20
2019-01-17T05:07:17.354Z,6.28
2019-01-17T05:08:17.377Z,6.30
2019-01-17T05:09:17.384Z,6.36
2019-01-17T05:10:17.417Z,6.26
2019-01-17T05:11:17.414Z,6.27
2019-01-17T05:12:17.440Z,6.41
2019-01-17T05:13:17.443Z,6.36
2019-01-17T05:14:17.459Z,6.30
2019-01-17T05:15:17.471Z,6.31
2019-01-17T05:16:17.502Z,6.24
2019-01-17T05:17:17.509Z,6.41
2019-01-17T05:18:17.529Z,6.44
2019-01-17T05:19:17.545Z,6.51
2019-01-17T05:20:17.561Z,6.60
2019-01-17T05:21:17.576Z,6.66
2019-01-17T05:22:17.588Z,6.59
2019-01-17T05:23:17.600Z,6.52
2019-01-17T05:24:17.638Z,6.51
2019-01-17T05:25:17.626Z,6.52
2019-01-17T05:26:17.673Z,6.67
2019-01-17T05:27:17.662Z,6.70
2019-01-17T05:28:17.677Z,6.69
2019-01-17T05:29:17.707Z,6.63
2019-01-17T05:30:17.707Z,6.70
2019-01-17T05:31:17.766Z,6.57
2019-01-17T05:32:17.748Z,6.63
2019-01-17T05:33:17.757Z,6.67
2019-01-17T05:34:17.799Z,6.74
2019-01-17T05:35:17.787Z,6.81
2019-01-17T05:36:17.812Z,6.72
2019-01-17T05:37:17.815Z,6.72
2019-01-17T05:38:17.829Z,6.77
2019-01-17T05:39:17.845Z,6.78
2019-01-17T05:40:17.868Z,6.72
2019-01-17T05:41:17.876Z,6.82
2019-01-17T05:42:17.906Z,6.84
2019-01-17T05:43:17.908Z,6.79
2019-01-17T05:44:17.949Z,6.87
2019-01-17T05:45:17.944Z,6.89
2019-01-17T05:46:17.957Z,6.96
2019-01-17T05:47:17.973Z,6.96
2019-01-17T05:48:18.012Z,6.93
2019-01-17T05:49:18.022Z,7.03
2019-01-17T05:50:18.023Z,6.87
2019-01-17T05:51:18.039Z,6.84
2019-01-17T05:52:18.060Z,6.77
2019-01-17T05:53:18.084Z,6.81
2019-01-17T05:54:18.096Z,6.81
2019-01-17T05:55:20.101Z,6.88
2019-01-17T05:56:18.132Z,6.74
2019-01-17T05:57:18.132Z,6.78
2019-01-17T05:58:18.171Z,6.88
2019-01-17T05:59:18.163Z,6.74
2019-01-17T06:00:18.185Z,6.79
2019-01-17T06:01:18.199Z,6.85
2019-01-17T06:02:18.223Z,6.89
2019-01-17T06:03:18.237Z,6.74
2019-01-17T06:04:18.246Z,6.70
2019-01-17T06:05:18.267Z,6.87
2019-01-17T06:06:18.281Z,6.79
2019-01-17T06:07:18.294Z,6.79
2019-01-17T06:08:18.327Z,6.79
2019-01-17T06:09:18.336Z,6.79
2019-01-17T06:10:18.342Z,6.81
2019-01-17T06:11:18.361Z,6.85
2019-01-17T06:12:18.376Z,6.84
2019-01-17T06:13:18.389Z,6.72
2019-01-17T06:14:18.403Z,6.79
2019-01-17T06:15:18.437Z,6.78
2019-01-17T06:16:18.453Z,6.89
2019-01-17T06:17:18.451Z,6.82
2019-01-17T06:18:18.466Z,6.72
2019-01-17T06:19:18.492Z,6.89
2019-01-17T06:20:18.506Z,6.89
2019-01-17T06:21:18.517Z,6.75
2019-01-17T06:22:18.533Z,6.78
2019-01-17T06:23:18.546Z,6.85
2019-01-17T06:24:18.563Z,6.88
2019-01-17T06:25:18.579Z,6.85
2019-01-17T06:26:18.605Z,6.82
2019-01-17T06:27:18.611Z,6.85
2019-01-17T06:28:18.626Z,6.77
2019-01-17T06:29:18.656Z,6.82
2019-01-17T06:30:18.662Z,6.89
2019-01-17T06:31:18.682Z,6.75
2019-01-17T06:32:18.694Z,6.72
2019-01-17T06:33:18.716Z,6.81
2019-01-17T06:34:18.738Z,6.85
2019-01-17T06:35:18.747Z,6.82
2019-01-17T06:36:18.758Z,6.93
2019-01-17T06:37:18.772Z,6.89
2019-01-17T06:38:18.792Z,7.00
2019-01-17T06:39:18.807Z,6.93
2019-01-17T06:40:18.845Z,6.97
2019-01-17T06:41:18.837Z,6.92
2019-01-17T06:42:18.851Z,6.95
2019-01-17T06:43:18.868Z,6.87
2019-01-17T06:44:20.433Z,6.93
2019-01-17T06:45:18.897Z,6.88
2019-01-17T06:46:18.932Z,6.87
2019-01-17T06:47:18.928Z,6.84
2019-01-17T06:48:18.952Z,6.79
2019-01-17T06:49:18.965Z,6.84
2019-01-17T06:50:18.980Z,6.92
2019-01-17T06:51:18.998Z,6.89
2019-01-17T06:52:19.009Z,6.92
2019-01-17T06:53:19.037Z,6.95
2019-01-17T06:54:19.060Z,6.93
2019-01-17T06:55:19.062Z,6.93
2019-01-17T06:56:19.080Z,6.96
2019-01-17T06:57:19.097Z,7.11
2019-01-17T06:58:19.105Z,7.00
2019-01-17T06:59:19.163Z,6.92
2019-01-17T07:00:19.158Z,6.81
2019-01-17T07:01:19.163Z,6.96
2019-01-17T07:02:19.174Z,6.92
2019-01-17T07:03:19.194Z,6.92
2019-01-17T07:04:19.203Z,6.96
2019-01-17T07:05:19.216Z,7.00
2019-01-17T07:06:19.243Z,7.10
2019-01-17T07:07:19.258Z,7.00
2019-01-17T07:08:19.277Z,6.95
2019-01-17T07:09:19.288Z,6.89
2019-01-17T07:10:19.302Z,6.89
2019-01-17T07:11:19.315Z,6.92
2019-01-17T07:12:19.334Z,7.07
2019-01-17T07:13:19.347Z,7.03
2019-01-17T07:14:19.366Z,6.95
2019-01-17T07:15:19.378Z,6.82
2019-01-17T07:16:19.396Z,6.87
2019-01-17T07:17:19.415Z,6.78
2019-01-17T07:18:19.424Z,6.75
2019-01-17T07:19:19.485Z,6.84
2019-01-17T07:20:19.463Z,6.81
2019-01-17T07:21:19.484Z,6.93
2019-01-17T07:22:19.496Z,6.78
2019-01-17T07:23:19.567Z,6.89
2019-01-17T07:24:19.523Z,6.95
2019-01-17T07:25:19.550Z,6.96
2019-01-17T07:26:19.552Z,6.93
2019-01-17T07:27:19.595Z,6.93
2019-01-17T07:28:19.593Z,6.99
2019-01-17T07:29:19.601Z,6.95
2019-01-17T07:30:19.628Z,6.89
2019-01-17T07:31:19.659Z,6.92
2019-01-17T07:32:19.651Z,6.93
2019-01-17T07:33:19.676Z,6.85
2019-01-17T07:34:19.682Z,6.81
2019-01-17T07:35:19.698Z,6.75
2019-01-17T07:36:19.713Z,6.70
2019-01-17T07:37:19.737Z,6.66
2019-01-17T07:38:19.757Z,6.77
2019-01-17T07:39:19.799Z,6.67
2019-01-17T07:40:19.779Z,6.63
2019-01-17T07:41:19.794Z,6.84
2019-01-17T07:42:19.813Z,6.75
2019-01-17T07:43:19.826Z,6.66
2019-01-17T07:44:19.842Z,6.70
2019-01-17T07:45:19.856Z,6.70
2019-01-17T07:46:19.874Z,6.59
2019-01-17T07:47:19.893Z,6.51
2019-01-17T07:48:19.912Z,6.49
2019-01-17T07:49:19.921Z,6.59
2019-01-17T07:50:19.954Z,6.56
2019-01-17T07:51:19.979Z,6.62
2019-01-17T07:52:19.974Z,6.63
2019-01-17T07:53:20.008Z,6.67
2019-01-17T07:54:20.011Z,6.59
2019-01-17T07:55:20.019Z,6.67
2019-01-17T07:56:20.035Z,6.62
2019-01-17T07:57:20.060Z,6.60
2019-01-17T07:58:20.066Z,6.63
2019-01-17T07:59:20.077Z,6.60
2019-01-17T08:00:20.110Z,6.54
2019-01-17T08:01:20.112Z,6.56
2019-01-17T08:02:20.127Z,6.49
2019-01-17T08:03:20.150Z,6.59
2019-01-17T08:04:20.162Z,6.63
2019-01-17T08:05:20.203Z,6.60
2019-01-17T08:06:20.190Z,6.59
2019-01-17T08:07:20.218Z,6.54
2019-01-17T08:08:20.231Z,6.67
2019-01-17T08:09:20.247Z,6.74
2019-01-17T08:10:20.263Z,6.63
2019-01-17T08:11:20.300Z,6.69
2019-01-17T08:12:20.311Z,6.67
2019-01-17T08:13:20.299Z,6.82
2019-01-17T08:14:20.320Z,6.84
2019-01-17T08:15:20.356Z,6.99
2019-01-17T08:16:20.366Z,6.82
2019-01-17T08:17:20.368Z,6.84
2019-01-17T08:18:20.379Z,6.74
2019-01-17T08:19:20.399Z,6.66
2019-01-17T08:20:20.411Z,6.66
2019-01-17T08:21:20.433Z,6.67
2019-01-17T08:22:20.446Z,6.81
2019-01-17T08:23:20.482Z,6.74
2019-01-17T08:24:20.518Z,6.70
2019-01-17T08:25:20.504Z,6.74
2019-01-17T08:26:20.517Z,6.74
2019-01-17T08:27:20.535Z,6.88
2019-01-17T08:28:20.541Z,6.77
2019-01-17T08:29:20.554Z,6.70
2019-01-17T08:30:20.574Z,6.72
2019-01-17T08:31:20.585Z,6.72
2019-01-17T08:32:20.600Z,6.62
2019-01-17T08:33:20.618Z,6.60
2019-01-17T08:34:20.631Z,6.67
2019-01-17T08:35:20.648Z,6.74
2019-01-17T08:36:20.666Z,6.75
2019-01-17T08:37:20.679Z,6.79
2019-01-17T08:38:20.697Z,6.79
2019-01-17T08:39:20.714Z,6.95
2019-01-17T08:40:20.727Z,6.95
2019-01-17T08:41:20.747Z,6.99
2019-01-17T08:42:20.778Z,7.07
2019-01-17T08:43:20.774Z,7.06
2019-01-17T08:44:20.803Z,7.00
2019-01-17T08:45:20.812Z,6.92
2019-01-17T08:46:20.830Z,6.96
2019-01-17T08:47:20.844Z,7.11
2019-01-17T08:48:20.865Z,6.95
2019-01-17T08:49:20.869Z,6.99
2019-01-17T08:50:20.886Z,6.97
2019-01-17T08:51:20.908Z,7.00
2019-01-17T08:52:20.918Z,7.00
2019-01-17T08:53:20.942Z,7.00
2019-01-17T08:54:20.950Z,6.99
2019-01-17T08:55:20.968Z,7.02
2019-01-17T08:56:21.004Z,7.13
2019-01-17T08:57:21.005Z,7.18
2019-01-17T08:58:21.016Z,7.15
2019-01-17T08:59:21.031Z,7.35
2019-01-17T09:00:21.057Z,7.31
2019-01-17T09:01:21.062Z,7.38
2019-01-17T09:02:21.080Z,7.33
2019-01-17T09:03:21.104Z,7.47
2019-01-17T09:04:21.112Z,7.32
2019-01-17T09:05:21.124Z,7.36
2019-01-17T09:06:21.147Z,7.38
2019-01-17T09:07:21.163Z,7.38
2019-01-17T09:08:21.185Z,7.35
2019-01-17T09:09:21.194Z,7.32
2019-01-17T09:10:21.215Z,7.20
2019-01-17T09:11:21.234Z,7.17
2019-01-17T09:12:21.248Z,7.20
2019-01-17T09:13:21.258Z,7.17
2019-01-17T09:14:21.288Z,7.25
2019-01-17T09:15:21.329Z,7.39
2019-01-17T09:16:21.315Z,7.29
2019-01-17T09:17:21.332Z,7.21
2019-01-17T09:18:21.342Z,7.29
2019-01-17T09:19:21.364Z,7.35
2019-01-17T09:20:21.372Z,7.47
2019-01-17T09:21:21.390Z,7.53
2019-01-17T09:22:21.413Z,7.66
2019-01-17T09:23:21.418Z,7.66
2019-01-17T09:24:21.487Z,7.76
2019-01-17T09:25:21.453Z,7.75
2019-01-17T09:26:21.470Z,7.73
2019-01-17T09:27:21.485Z,7.80
2019-01-17T09:28:21.508Z,7.79
2019-01-17T09:29:21.522Z,7.79
2019-01-17T09:30:21.534Z,7.50
2019-01-17T09:31:21.561Z,7.56
2019-01-17T09:32:21.573Z,7.63
2019-01-17T09:33:21.584Z,7.70
2019-01-17T09:34:21.606Z,7.50
2019-01-17T09:35:21.635Z,7.56
2019-01-17T09:36:21.636Z,7.53
2019-01-17T09:37:21.673Z,7.60
2019-01-17T09:38:21.674Z,7.63
2019-01-17T09:39:21.684Z,7.35
2019-01-17T09:40:21.715Z,7.45
2019-01-17T09:41:21.718Z,7.47
2019-01-17T09:42:21.733Z,7.42
2019-01-17T09:43:21.763Z,7.47
2019-01-17T09:44:21.772Z,7.67
2019-01-17T09:45:21.783Z,7.48
2019-01-17T09:46:21.799Z,7.50
2019-01-17T09:47:21.820Z,7.61
2019-01-17T09:48:21.834Z,7.93
2019-01-17T09:49:21.858Z,8.05
2019-01-17T09:50:21.873Z,7.95
2019-01-17T09:51:21.889Z,7.98
2019-01-17T09:52:21.901Z,7.82
2019-01-17T09:53:21.914Z,7.63
2019-01-17T09:54:21.951Z,7.70
2019-01-17T09:55:21.962Z,7.93
2019-01-17T09:56:21.972Z,8.00
2019-01-17T09:57:21.987Z,8.00
2019-01-17T09:58:22.011Z,7.88
2019-01-17T09:59:22.028Z,8.03
2019-01-17T10:00:22.051Z,7.91
2019-01-17T10:01:22.067Z,8.00
2019-01-17T10:02:22.079Z,7.97
2019-01-17T10:03:22.090Z,7.87
2019-01-17T10:04:26.409Z,7.95
2019-01-17T10:05:22.122Z,7.87
2019-01-17T10:06:22.134Z,7.94
2019-01-17T10:07:22.150Z,8.12
2019-01-17T10:08:22.167Z,8.16
2019-01-17T10:09:22.183Z,8.01
2019-01-17T10:10:22.225Z,7.93
2019-01-17T10:11:22.236Z,7.90
2019-01-17T10:12:22.240Z,7.90
2019-01-17T10:13:22.481Z,7.95
2019-01-17T10:14:22.278Z,7.90
2019-01-17T10:15:23.626Z,7.93
2019-01-17T10:16:22.308Z,7.85
2019-01-17T10:17:22.318Z,7.94
2019-01-17T10:18:22.360Z,7.77
2019-01-17T10:19:22.366Z,7.79
2019-01-17T10:20:22.373Z,7.94
2019-01-17T10:21:22.396Z,7.77
2019-01-17T10:22:22.409Z,7.93
2019-01-17T10:23:22.419Z,7.91
2019-01-17T10:24:22.442Z,8.12
2019-01-17T10:25:22.456Z,7.97
2019-01-17T10:26:22.478Z,7.85
2019-01-17T10:27:22.490Z,7.94
2019-01-17T10:28:22.504Z,7.91
2019-01-17T10:29:22.539Z,8.06
2019-01-17T10:30:22.539Z,8.01
2019-01-17T10:31:22.559Z,8.16
2019-01-17T10:32:22.573Z,7.91
2019-01-17T10:33:22.613Z,7.93
2019-01-17T10:34:22.623Z,7.88
2019-01-17T10:35:22.629Z,8.05
2019-01-17T10:36:22.652Z,8.10
2019-01-17T10:37:22.658Z,8.15
2019-01-17T10:38:22.672Z,8.28
2019-01-17T10:39:22.707Z,8.38
2019-01-17T10:40:22.711Z,8.41
2019-01-17T10:41:22.718Z,8.33
2019-01-17T10:42:22.748Z,8.30
2019-01-17T10:43:22.772Z,8.49
2019-01-17T10:44:22.781Z,8.45
2019-01-17T10:45:22.795Z,8.67
2019-01-17T10:46:22.813Z,8.81
2019-01-17T10:47:22.829Z,8.85
2019-01-17T10:48:22.846Z,9.02
2019-01-17T10:49:22.865Z,9.31
2019-01-17T10:50:22.881Z,9.25
2019-01-17T10:51:22.902Z,9.10
2019-01-17T10:52:22.914Z,9.18
2019-01-17T10:53:22.939Z,9.23
2019-01-17T10:54:22.948Z,9.19
2019-01-17T10:55:22.967Z,9.47
2019-01-17T10:56:27.815Z,9.51
2019-01-17T10:57:23.004Z,9.37
2019-01-17T10:58:23.018Z,9.76
2019-01-17T10:59:23.051Z,9.80
2019-01-17T11:00:23.062Z,9.86
2019-01-17T11:01:23.071Z,9.89
2019-01-17T11:02:23.100Z,9.77
2019-01-17T11:03:23.107Z,9.41
2019-01-17T11:04:23.127Z,9.34
2019-01-17T11:05:23.144Z,9.32
2019-01-17T11:06:23.165Z,9.22
2019-01-17T11:07:23.226Z,8.92
2019-01-17T11:08:23.202Z,8.82
2019-01-17T11:09:23.217Z,9.02
2019-01-17T11:10:23.232Z,9.04
2019-01-17T11:11:23.258Z,9.18
2019-01-17T11:12:23.283Z,9.37
2019-01-17T11:13:23.289Z,9.21
2019-01-17T11:14:23.312Z,9.19
2019-01-17T11:15:23.319Z,9.10
2019-01-17T11:16:23.351Z,9.21
2019-01-17T11:17:23.360Z,8.89
2019-01-17T11:18:23.379Z,8.84
2019-01-17T11:19:23.401Z,8.85
2019-01-17T11:20:23.417Z,8.81
2019-01-17T11:21:23.430Z,8.81
2019-01-17T11:22:23.456Z,8.52
2019-01-17T11:23:23.462Z,8.66
2019-01-17T11:24:23.483Z,8.69
2019-01-17T11:25:23.505Z,8.82
2019-01-17T11:26:23.524Z,8.81
2019-01-17T11:27:23.533Z,8.94
2019-01-17T11:28:23.571Z,8.89
2019-01-17T11:29:23.569Z,8.89
2019-01-17T11:30:23.607Z,8.89
2019-01-17T11:31:23.605Z,9.06
2019-01-17T11:32:23.625Z,8.85
2019-01-17T11:33:23.641Z,8.82
2019-01-17T11:34:23.654Z,8.84
2019-01-17T11:35:23.676Z,8.73
2019-01-17T11:36:23.694Z,8.58
2019-01-17T11:37:23.707Z,8.63
2019-01-17T11:38:23.729Z,8.58
2019-01-17T11:39:23.762Z,8.64
2019-01-17T11:40:23.760Z,8.76
2019-01-17T11:41:23.790Z,8.61
2019-01-17T11:42:23.797Z,8.55
2019-01-17T11:43:23.821Z,8.71
2019-01-17T11:44:23.855Z,8.64
2019-01-17T11:45:23.844Z,8.66
2019-01-17T11:46:23.866Z,8.63
2019-01-17T11:47:23.923Z,8.37
2019-01-17T11:48:23.902Z,8.58
2019-01-17T11:49:23.955Z,8.70
2019-01-17T11:50:23.941Z,8.71
2019-01-17T11:51:23.951Z,8.91
2019-01-17T11:52:23.982Z,8.79
2019-01-17T11:53:23.983Z,8.74
2019-01-17T11:54:24.009Z,8.64
2019-01-17T11:55:24.024Z,8.71
2019-01-17T11:56:24.042Z,8.85
2019-01-17T11:57:24.059Z,8.92
2019-01-17T11:58:24.082Z,8.84
2019-01-17T11:59:24.090Z,8.82
2019-01-17T12:00:24.108Z,8.92
2019-01-17T12:01:24.134Z,8.81
2019-01-17T12:02:24.140Z,8.92
2019-01-17T12:03:24.163Z,8.87
2019-01-17T12:04:24.180Z,8.67
2019-01-17T12:05:24.197Z,8.70
2019-01-17T12:06:24.212Z,8.81
2019-01-17T12:07:24.234Z,9.00
2019-01-17T12:08:24.272Z,8.84
2019-01-17T12:09:24.266Z,8.84
2019-01-17T12:10:24.282Z,8.78
2019-01-17T12:11:24.314Z,8.79
2019-01-17T12:12:24.324Z,8.84
2019-01-17T12:13:24.330Z,8.92
2019-01-17T12:14:24.370Z,8.91
2019-01-17T12:15:24.374Z,9.03
2019-01-17T12:16:24.387Z,8.92
2019-01-17T12:17:24.407Z,8.88
2019-01-17T12:18:24.420Z,8.87
2019-01-17T12:19:24.436Z,8.94
2019-01-17T12:20:24.462Z,8.88
2019-01-17T12:21:24.474Z,8.91
2019-01-17T12:22:24.822Z,9.00
2019-01-17T12:23:24.508Z,9.08
2019-01-17T12:24:24.529Z,9.10
2019-01-17T12:25:24.568Z,9.14
2019-01-17T12:26:24.569Z,9.25
2019-01-17T12:27:24.575Z,9.18
2019-01-17T12:28:24.594Z,9.08
2019-01-17T12:29:24.607Z,8.94
2019-01-17T12:30:24.637Z,8.99
2019-01-17T12:31:24.673Z,8.94
2019-01-17T12:32:24.666Z,8.78
2019-01-17T12:33:24.680Z,8.73
2019-01-17T12:34:24.692Z,8.67
2019-01-17T12:35:24.714Z,8.53
2019-01-17T12:36:24.731Z,8.38
2019-01-17T12:37:24.749Z,8.44
2019-01-17T12:38:24.787Z,8.48
2019-01-17T12:39:24.781Z,8.48
2019-01-17T12:40:24.803Z,8.33
2019-01-17T12:41:24.820Z,8.19
2019-01-17T12:42:24.837Z,8.19
2019-01-17T12:43:24.855Z,8.12
2019-01-17T12:44:24.875Z,8.03
2019-01-17T12:45:24.886Z,8.03
2019-01-17T12:46:24.906Z,7.90
2019-01-17T12:47:24.921Z,7.66
2019-01-17T12:48:24.935Z,7.77
2019-01-17T12:49:24.965Z,7.85
2019-01-17T12:50:24.982Z,7.88
2019-01-17T12:51:24.993Z,7.97
2019-01-17T12:52:25.011Z,7.82
2019-01-17T12:53:25.025Z,7.77
2019-01-17T12:54:25.043Z,7.66
2019-01-17T12:55:25.056Z,7.79
2019-01-17T12:56:25.074Z,7.77
2019-01-17T12:57:25.089Z,7.58
2019-01-17T12:58:25.113Z,7.45
2019-01-17T12:59:25.123Z,7.45
2019-01-17T13:00:25.144Z,7.33
2019-01-17T13:01:25.162Z,7.36
2019-01-17T13:02:25.178Z,7.29
2019-01-17T13:03:25.205Z,7.18
2019-01-17T13:04:25.211Z,7.17
2019-01-17T13:05:25.229Z,7.25
2019-01-17T13:06:25.244Z,7.28
2019-01-17T13:07:25.262Z,7.18
2019-01-17T13:08:25.269Z,7.10
2019-01-17T13:09:25.296Z,7.02
2019-01-17T13:10:25.311Z,6.92
2019-01-17T13:11:25.329Z,6.81
2019-01-17T13:12:25.336Z,6.81
2019-01-17T13:13:25.354Z,6.74
2019-01-17T13:14:25.377Z,6.59
2019-01-17T13:15:25.392Z,6.54
2019-01-17T13:16:25.403Z,6.48
2019-01-17T13:17:25.420Z,6.49
2019-01-17T13:18:25.435Z,6.42